createdAt,value
2017-12-28T00:01:46.117Z,1.62
2017-12-28T00:04:12.556Z,1.27
2017-12-28T00:06:39.010Z,1.30
2017-12-28T00:09:05.490Z,1.27
2017-12-28T00:11:31.961Z,1.30
2017-12-28T00:13:58.377Z,1.10
2017-12-28T00:16:24.810Z,1.17
2017-12-28T00:18:51.236Z,1.20
2017-12-28T00:21:17.693Z,1.52
2017-12-28T00:23:44.164Z,1.00
2017-12-28T00:26:10.576Z,1.50
2017-12-28T00:28:37.014Z,3.30
2017-12-28T00:31:03.444Z,1.45
2017-12-28T00:33:29.897Z,1.20
2017-12-28T00:35:56.404Z,1.20
2017-12-28T00:38:22.870Z,1.10
2017-12-28T00:40:49.308Z,1.05
2017-12-28T00:43:15.794Z,1.15
2017-12-28T00:45:42.349Z,0.90
2017-12-28T00:48:09.558Z,1.50
2017-12-28T00:50:36.010Z,1.02
2017-12-28T00:53:02.518Z,1.52
2017-12-28T00:55:28.965Z,1.00
2017-12-28T00:57:55.395Z,0.90
2017-12-28T01:00:21.814Z,1.00
2017-12-28T01:02:48.376Z,1.35
2017-12-28T01:05:14.809Z,0.95
2017-12-28T01:07:41.233Z,1.12
2017-12-28T01:10:07.737Z,1.15
2017-12-28T01:12:34.174Z,1.20
2017-12-28T01:15:01.359Z,1.83
2017-12-28T01:17:28.529Z,1.17
2017-12-28T01:19:54.945Z,1.00
2017-12-28T01:22:21.380Z,0.90
2017-12-28T01:24:47.820Z,1.10
2017-12-28T01:27:14.305Z,0.80
2017-12-28T01:29:40.741Z,0.80
2017-12-28T01:32:07.177Z,0.85
2017-12-28T01:34:33.597Z,0.70
2017-12-28T01:37:00.026Z,1.40
2017-12-28T01:39:26.537Z,0.68
2017-12-28T01:41:53.046Z,1.25
2017-12-28T01:44:19.469Z,0.60
2017-12-28T01:46:45.904Z,0.60
2017-12-28T01:49:12.362Z,0.75
2017-12-28T01:51:38.829Z,1.10
2017-12-28T01:54:05.997Z,0.60
2017-12-28T01:56:32.420Z,0.62
2017-12-28T01:58:59.592Z,0.50
2017-12-28T02:01:26.062Z,0.70
2017-12-28T02:03:52.509Z,0.70
2017-12-28T02:06:18.945Z,0.73
2017-12-28T02:08:46.133Z,0.68
2017-12-28T02:11:12.566Z,0.68
2017-12-28T02:13:39.035Z,0.70
2017-12-28T02:16:05.461Z,0.60
2017-12-28T02:18:31.949Z,0.75
2017-12-28T02:20:58.365Z,0.70
2017-12-28T02:23:25.899Z,0.60
2017-12-28T02:25:52.328Z,0.70
2017-12-28T02:28:18.780Z,0.88
2017-12-28T02:30:45.229Z,0.60
2017-12-28T02:33:11.680Z,1.30
2017-12-28T02:35:38.117Z,0.70
2017-12-28T02:38:04.523Z,0.57
2017-12-28T02:40:30.961Z,0.60
2017-12-28T02:42:57.368Z,0.50
2017-12-28T02:45:23.820Z,1.30
2017-12-28T02:47:51.004Z,0.70
2017-12-28T02:50:17.485Z,0.65
2017-12-28T02:52:43.987Z,0.60
2017-12-28T02:55:10.401Z,0.60
2017-12-28T02:57:36.857Z,0.50
2017-12-28T03:00:03.313Z,0.73
2017-12-28T03:02:29.786Z,0.88
2017-12-28T03:04:56.956Z,0.70
2017-12-28T03:07:23.422Z,0.70
2017-12-28T03:09:49.817Z,0.80
2017-12-28T03:12:16.255Z,0.60
2017-12-28T03:14:42.724Z,0.60
2017-12-28T03:17:09.572Z,0.70
2017-12-28T03:19:35.993Z,0.60
2017-12-28T03:22:02.422Z,0.40
2017-12-28T03:24:28.876Z,0.40
2017-12-28T03:26:55.365Z,0.50
2017-12-28T03:29:21.816Z,0.50
2017-12-28T03:31:48.269Z,0.60
2017-12-28T03:34:14.732Z,0.68
2017-12-28T03:36:41.225Z,0.50
2017-12-28T03:39:07.657Z,0.40
2017-12-28T03:41:34.102Z,0.95
2017-12-28T03:44:00.842Z,1.08
2017-12-28T03:46:27.279Z,1.30
2017-12-28T03:48:54.097Z,0.40
2017-12-28T03:51:20.551Z,0.50
2017-12-28T03:53:46.984Z,0.55
2017-12-28T03:56:13.442Z,0.40
2017-12-28T03:58:39.873Z,2.72
2017-12-28T04:01:06.452Z,0.50
2017-12-28T04:03:32.877Z,0.50
2017-12-28T04:05:59.379Z,0.40
2017-12-28T04:08:25.821Z,0.75
2017-12-28T04:10:52.300Z,0.50
2017-12-28T04:13:18.758Z,0.68
2017-12-28T04:15:45.193Z,0.80
2017-12-28T04:18:11.593Z,0.65
2017-12-28T04:20:38.026Z,0.65
2017-12-28T04:23:05.203Z,0.65
2017-12-28T04:25:31.637Z,0.80
2017-12-28T04:27:58.240Z,0.47
2017-12-28T04:30:24.704Z,0.50
2017-12-28T04:32:51.161Z,0.52
2017-12-28T04:35:17.588Z,0.80
2017-12-28T04:37:44.031Z,0.60
2017-12-28T04:40:10.456Z,0.55
2017-12-28T04:42:37.671Z,0.45
2017-12-28T04:45:04.116Z,0.50
2017-12-28T04:47:30.578Z,0.40
2017-12-28T04:49:56.992Z,0.85
2017-12-28T04:52:23.568Z,0.50
2017-12-28T04:54:49.983Z,0.75
2017-12-28T04:57:16.397Z,0.47
2017-12-28T04:59:42.833Z,0.60
2017-12-28T05:02:09.249Z,0.47
2017-12-28T05:04:35.687Z,2.20
2017-12-28T05:07:02.101Z,0.73
2017-12-28T05:09:28.557Z,0.85
2017-12-28T05:11:54.972Z,2.10
2017-12-28T05:14:21.376Z,0.50
2017-12-28T05:16:47.797Z,0.50
2017-12-28T05:19:14.961Z,0.40
2017-12-28T05:21:41.396Z,0.60
2017-12-28T05:24:07.849Z,0.47
2017-12-28T05:26:34.273Z,0.50
2017-12-28T05:29:00.722Z,0.60
2017-12-28T05:31:27.169Z,0.45
2017-12-28T05:33:54.238Z,1.02
2017-12-28T05:36:20.652Z,0.80
2017-12-28T05:38:47.074Z,0.68
2017-12-28T05:41:13.534Z,0.50
2017-12-28T05:43:39.996Z,0.40
2017-12-28T05:46:06.513Z,0.50
2017-12-28T05:48:33.733Z,0.60
2017-12-28T05:51:00.210Z,0.50
2017-12-28T05:53:27.445Z,0.60
2017-12-28T05:55:54.651Z,0.40
2017-12-28T05:58:21.088Z,0.40
2017-12-28T06:00:47.543Z,0.40
2017-12-28T06:03:14.027Z,0.43
2017-12-28T06:05:40.436Z,0.35
2017-12-28T06:08:06.873Z,0.40
2017-12-28T06:10:34.070Z,0.40
2017-12-28T06:13:00.629Z,0.52
2017-12-28T06:15:27.114Z,0.62
2017-12-28T06:17:53.537Z,0.52
2017-12-28T06:20:20.730Z,0.50
2017-12-28T06:22:47.179Z,0.40
2017-12-28T06:25:13.904Z,0.40
2017-12-28T06:27:40.353Z,0.60
2017-12-28T06:30:06.789Z,0.40
2017-12-28T06:32:33.235Z,0.77
2017-12-28T06:34:59.673Z,0.65
2017-12-28T06:37:26.121Z,0.40
2017-12-28T06:39:53.287Z,0.40
2017-12-28T06:42:19.720Z,0.30
2017-12-28T06:44:46.179Z,0.40
2017-12-28T06:47:12.663Z,1.25
2017-12-28T06:49:39.862Z,0.40
2017-12-28T06:52:06.319Z,0.32
2017-12-28T06:54:32.772Z,0.40
2017-12-28T06:56:59.974Z,0.95
2017-12-28T06:59:26.396Z,0.50
2017-12-28T07:01:52.845Z,0.40
2017-12-28T07:04:19.292Z,0.30
2017-12-28T07:06:45.723Z,0.40
2017-12-28T07:09:12.206Z,0.40
2017-12-28T07:11:39.373Z,0.40
2017-12-28T07:14:05.833Z,0.50
2017-12-28T07:16:32.266Z,0.60
2017-12-28T07:18:58.697Z,1.40
2017-12-28T07:21:25.210Z,20.83
2017-12-28T07:23:51.629Z,20.20
2017-12-28T07:26:18.085Z,18.50
2017-12-28T07:28:44.568Z,12.90
2017-12-28T07:31:11.010Z,2.53
2017-12-28T07:33:38.192Z,0.45
2017-12-28T07:36:04.601Z,0.77
2017-12-28T07:38:31.801Z,0.70
2017-12-28T07:40:58.249Z,0.68
2017-12-28T07:43:24.676Z,0.50
2017-12-28T07:45:51.092Z,2.75
2017-12-28T07:48:17.549Z,1.50
2017-12-28T07:50:43.983Z,2.87
2017-12-28T07:53:10.451Z,1.87
2017-12-28T07:55:36.893Z,1.02
2017-12-28T07:58:03.353Z,0.90
2017-12-28T08:00:29.812Z,1.15
2017-12-28T08:02:56.285Z,0.95
2017-12-28T08:05:23.461Z,0.90
2017-12-28T08:07:49.938Z,0.70
2017-12-28T08:10:16.396Z,1.20
2017-12-28T08:12:43.600Z,1.12
2017-12-28T08:15:10.082Z,1.80
2017-12-28T08:17:37.311Z,1.80
2017-12-28T08:20:03.748Z,0.80
2017-12-28T08:22:30.197Z,0.90
2017-12-28T08:24:56.883Z,0.80
2017-12-28T08:27:24.328Z,0.90
2017-12-28T08:29:50.766Z,1.00
2017-12-28T08:32:17.244Z,1.23
2017-12-28T08:34:43.676Z,1.20
2017-12-28T08:37:10.145Z,1.75
2017-12-28T08:39:36.597Z,1.10
2017-12-28T08:42:03.061Z,1.35
2017-12-28T08:44:29.517Z,0.95
2017-12-28T08:46:55.952Z,1.40
2017-12-28T08:49:22.433Z,1.40
2017-12-28T08:51:48.913Z,1.08
2017-12-28T08:54:15.367Z,2.25
2017-12-28T08:56:42.565Z,6.72
2017-12-28T08:59:09.000Z,2.53
2017-12-28T09:01:35.469Z,1.55
2017-12-28T09:04:02.037Z,1.62
2017-12-28T09:06:28.495Z,1.55
2017-12-28T09:08:54.929Z,1.20
2017-12-28T09:11:22.201Z,1.70
2017-12-28T09:13:48.621Z,1.42
2017-12-28T09:16:15.042Z,1.60
2017-12-28T09:18:41.506Z,2.35
2017-12-28T09:21:08.660Z,2.22
2017-12-28T09:23:35.122Z,1.87
2017-12-28T09:26:02.328Z,2.33
2017-12-28T09:28:28.809Z,2.35
2017-12-28T09:30:56.021Z,1.48
2017-12-28T09:33:22.446Z,3.67
2017-12-28T09:35:48.922Z,4.40
2017-12-28T09:38:15.345Z,1.85
2017-12-28T09:40:41.768Z,1.85
2017-12-28T09:43:08.257Z,1.60
2017-12-28T09:45:34.770Z,1.92
2017-12-28T09:48:01.272Z,1.55
2017-12-28T09:50:27.707Z,1.73
2017-12-28T09:52:54.136Z,1.55
2017-12-28T09:55:20.582Z,1.73
2017-12-28T09:57:47.045Z,1.40
2017-12-28T10:00:14.239Z,1.23
2017-12-28T10:02:40.686Z,2.42
2017-12-28T10:05:07.201Z,1.70
2017-12-28T10:07:33.638Z,3.08
2017-12-28T10:10:00.125Z,3.60
2017-12-28T10:12:27.335Z,2.00
2017-12-28T10:14:53.800Z,2.00
2017-12-28T10:17:21.013Z,2.00
2017-12-28T10:19:47.474Z,2.15
2017-12-28T10:22:13.903Z,1.77
2017-12-28T10:24:40.372Z,1.87
2017-12-28T10:27:06.827Z,2.47
2017-12-28T10:29:33.252Z,2.05
2017-12-28T10:31:59.722Z,3.65
2017-12-28T10:34:26.560Z,2.62
2017-12-28T10:36:53.027Z,4.05
2017-12-28T10:39:19.481Z,3.65
2017-12-28T10:41:45.947Z,8.13
2017-12-28T10:44:12.432Z,9.00
2017-12-28T10:46:39.614Z,3.65
2017-12-28T10:49:06.065Z,2.95
2017-12-28T10:51:33.246Z,3.80
2017-12-28T10:53:59.713Z,3.33
2017-12-28T10:56:26.156Z,4.75
2017-12-28T10:58:52.607Z,3.55
2017-12-28T11:01:19.073Z,3.95
2017-12-28T11:03:46.271Z,3.42
2017-12-28T11:06:12.713Z,4.28
2017-12-28T11:08:39.170Z,5.05
2017-12-28T11:11:05.609Z,3.15
2017-12-28T11:13:32.113Z,5.20
2017-12-28T11:15:58.549Z,4.93
2017-12-28T11:18:25.128Z,11.60
2017-12-28T11:20:51.547Z,9.10
2017-12-28T11:23:18.766Z,4.72
2017-12-28T11:25:45.184Z,14.63
2017-12-28T11:28:11.625Z,19.90
2017-12-28T11:30:38.073Z,7.00
2017-12-28T11:33:04.501Z,7.35
2017-12-28T11:35:30.909Z,6.20
2017-12-28T11:37:57.372Z,4.47
2017-12-28T11:40:23.809Z,9.30
2017-12-28T11:42:50.297Z,4.62
2017-12-28T11:45:16.748Z,2.97
2017-12-28T11:47:43.316Z,6.62
2017-12-28T11:50:09.789Z,6.00
2017-12-28T11:52:36.297Z,7.55
2017-12-28T11:55:03.762Z,5.20
2017-12-28T11:57:30.277Z,5.22
2017-12-28T11:59:56.871Z,4.50
2017-12-28T12:02:38.981Z,5.68
2017-12-28T12:05:05.449Z,3.92
2017-12-28T12:07:34.860Z,6.80
2017-12-28T12:10:07.461Z,6.03
2017-12-28T12:12:33.901Z,3.05
2017-12-28T12:15:00.576Z,5.40
2017-12-28T12:17:27.006Z,3.55
2017-12-28T12:19:53.444Z,6.43
2017-12-28T12:22:19.912Z,3.60
2017-12-28T12:24:46.475Z,5.65
2017-12-28T12:27:12.940Z,6.30
2017-12-28T12:29:39.378Z,6.95
2017-12-28T12:32:05.849Z,5.30
2017-12-28T12:34:32.281Z,3.58
2017-12-28T12:36:58.740Z,5.00
2017-12-28T12:39:25.234Z,4.50
2017-12-28T12:41:51.737Z,4.28
2017-12-28T12:44:18.187Z,4.05
2017-12-28T12:46:44.637Z,3.22
2017-12-28T12:49:11.816Z,3.30
2017-12-28T12:51:38.393Z,5.28
2017-12-28T12:54:05.680Z,3.50
2017-12-28T12:56:32.142Z,2.42
2017-12-28T12:58:58.582Z,3.22
2017-12-28T13:01:25.821Z,5.10
2017-12-28T13:03:52.276Z,4.68
2017-12-28T13:06:19.449Z,3.05
2017-12-28T13:08:45.923Z,4.32
2017-12-28T13:11:12.371Z,5.10
2017-12-28T13:13:38.848Z,5.50
2017-12-28T13:16:05.319Z,2.53
2017-12-28T13:18:31.807Z,4.80
2017-12-28T13:20:58.493Z,3.42
2017-12-28T13:23:24.951Z,5.47
2017-12-28T13:25:51.376Z,4.87
2017-12-28T13:28:17.830Z,2.55
2017-12-28T13:30:44.285Z,4.10
2017-12-28T13:33:10.749Z,2.95
2017-12-28T13:35:37.222Z,4.85
2017-12-28T13:38:03.689Z,2.17
2017-12-28T13:40:30.247Z,4.30
2017-12-28T13:42:56.725Z,3.65
2017-12-28T13:45:23.892Z,4.40
2017-12-28T13:47:50.369Z,2.70
2017-12-28T13:50:16.784Z,3.00
2017-12-28T13:52:43.252Z,5.32
2017-12-28T13:55:09.718Z,2.90
2017-12-28T13:57:36.922Z,4.50
2017-12-28T14:00:03.420Z,8.00
2017-12-28T14:02:30.592Z,4.78
2017-12-28T14:04:57.082Z,5.03
2017-12-28T14:07:24.280Z,6.45
2017-12-28T14:09:50.746Z,7.62
2017-12-28T14:12:17.210Z,4.70
2017-12-28T14:14:44.372Z,6.40
2017-12-28T14:17:10.816Z,4.62
2017-12-28T14:19:37.312Z,4.50
2017-12-28T14:22:04.492Z,3.60
2017-12-28T14:24:31.266Z,3.15
2017-12-28T14:26:57.690Z,4.85
2017-12-28T14:29:24.169Z,4.10
2017-12-28T14:31:50.635Z,6.80
2017-12-28T14:34:17.075Z,5.32
2017-12-28T14:36:43.541Z,3.08
2017-12-28T14:39:10.012Z,5.20
2017-12-28T14:41:36.472Z,6.50
2017-12-28T14:44:02.942Z,3.42
2017-12-28T14:46:29.409Z,2.75
2017-12-28T14:48:55.876Z,5.55
2017-12-28T14:51:22.364Z,4.62
2017-12-28T14:53:48.855Z,7.15
2017-12-28T14:56:15.326Z,3.92
2017-12-28T14:58:41.780Z,5.05
2017-12-28T15:01:08.241Z,5.43
2017-12-28T15:03:34.758Z,3.40
2017-12-28T15:06:01.953Z,3.30
2017-12-28T15:08:28.441Z,5.47
2017-12-28T15:10:55.761Z,5.47
2017-12-28T15:13:22.194Z,4.03
2017-12-28T15:15:48.624Z,2.87
2017-12-28T15:18:15.152Z,4.45
2017-12-28T15:20:41.621Z,5.20
2017-12-28T15:23:08.112Z,6.20
2017-12-28T15:25:34.564Z,4.87
2017-12-28T15:28:01.002Z,8.35
2017-12-28T15:30:27.492Z,5.30
2017-12-28T15:32:53.924Z,3.78
2017-12-28T15:35:20.417Z,6.72
2017-12-28T15:37:46.875Z,8.02
2017-12-28T15:40:14.136Z,6.78
2017-12-28T15:42:40.612Z,10.07
2017-12-28T15:45:07.100Z,7.37
2017-12-28T15:47:33.593Z,4.82
2017-12-28T15:50:00.082Z,4.55
2017-12-28T15:52:26.585Z,3.53
2017-12-28T15:54:53.035Z,6.62
2017-12-28T15:57:20.270Z,5.55
2017-12-28T15:59:47.496Z,7.40
2017-12-28T16:02:15.522Z,5.30
2017-12-28T16:04:41.977Z,5.22
2017-12-28T16:07:09.238Z,4.87
2017-12-28T16:09:35.686Z,7.28
2017-12-28T16:12:02.201Z,4.95
2017-12-28T16:14:28.674Z,5.68
2017-12-28T16:16:55.105Z,5.65
2017-12-28T16:19:21.545Z,4.68
2017-12-28T16:21:48.248Z,15.10
2017-12-28T16:24:14.702Z,62.33
2017-12-28T16:26:41.177Z,15.68
2017-12-28T16:29:07.780Z,18.65
2017-12-28T16:31:34.217Z,9.38
2017-12-28T16:34:00.718Z,10.90
2017-12-28T16:36:27.185Z,10.13
2017-12-28T16:38:54.404Z,9.73
2017-12-28T16:41:20.837Z,12.63
2017-12-28T16:43:47.271Z,18.50
2017-12-28T16:46:13.786Z,10.80
2017-12-28T16:48:40.250Z,6.15
2017-12-28T16:51:06.657Z,7.70
2017-12-28T16:53:33.185Z,10.18
2017-12-28T16:55:59.715Z,7.57
2017-12-28T16:58:26.172Z,5.60
2017-12-28T17:00:52.584Z,7.32
2017-12-28T17:03:19.069Z,8.63
2017-12-28T17:05:45.558Z,9.48
2017-12-28T17:08:12.057Z,7.57
2017-12-28T17:10:39.250Z,6.65
2017-12-28T17:13:05.669Z,7.18
2017-12-28T17:15:32.164Z,8.40
2017-12-28T17:17:59.349Z,11.15
2017-12-28T17:20:25.770Z,10.07
2017-12-28T17:22:52.928Z,9.75
2017-12-28T17:25:19.394Z,5.72
2017-12-28T17:27:45.885Z,6.50
2017-12-28T17:30:13.137Z,6.87
2017-12-28T17:32:40.330Z,6.37
2017-12-28T17:35:06.775Z,6.50
2017-12-28T17:37:33.190Z,6.80
2017-12-28T17:39:59.823Z,9.82
2017-12-28T17:42:26.252Z,7.68
2017-12-28T17:44:52.688Z,7.05
2017-12-28T17:47:19.130Z,6.07
2017-12-28T17:49:45.734Z,8.07
2017-12-28T17:52:12.940Z,4.87
2017-12-28T17:54:39.452Z,6.62
2017-12-28T17:57:05.887Z,7.43
2017-12-28T17:59:32.315Z,7.37
2017-12-28T18:01:59.840Z,7.07
2017-12-28T18:04:26.322Z,6.93
2017-12-28T18:06:52.710Z,8.02
2017-12-28T18:09:19.169Z,5.93
2017-12-28T18:11:45.621Z,4.37
2017-12-28T18:14:12.048Z,4.28
2017-12-28T18:16:38.480Z,4.12
2017-12-28T18:19:05.043Z,3.90
2017-12-28T18:21:32.275Z,5.05
2017-12-28T18:23:58.727Z,5.12
2017-12-28T18:26:25.915Z,5.65
2017-12-28T18:28:52.350Z,4.72
2017-12-28T18:31:18.801Z,4.45
2017-12-28T18:33:45.276Z,7.15
2017-12-28T18:36:11.714Z,5.72
2017-12-28T18:38:38.167Z,7.07
2017-12-28T18:41:04.596Z,6.22
2017-12-28T18:43:31.027Z,10.95
2017-12-28T18:45:57.533Z,6.85
2017-12-28T18:48:23.972Z,4.82
2017-12-28T18:50:50.474Z,6.60
2017-12-28T18:53:16.946Z,8.23
2017-12-28T18:55:43.428Z,5.28
2017-12-28T18:58:09.886Z,6.55
2017-12-28T19:00:36.420Z,5.57
2017-12-28T19:03:02.881Z,6.12
2017-12-28T19:05:29.336Z,4.40
2017-12-28T19:07:55.861Z,6.90
2017-12-28T19:10:23.201Z,6.93
2017-12-28T19:12:49.668Z,4.45
2017-12-28T19:15:16.110Z,4.90
2017-12-28T19:17:42.572Z,5.45
2017-12-28T19:20:09.093Z,8.25
2017-12-28T19:22:35.591Z,7.10
2017-12-28T19:25:02.066Z,7.87
2017-12-28T19:27:28.626Z,4.75
2017-12-28T19:29:55.078Z,10.02
2017-12-28T19:32:21.785Z,8.95
2017-12-28T19:34:48.932Z,10.60
2017-12-28T19:37:16.085Z,8.77
2017-12-28T19:39:42.612Z,7.45
2017-12-28T19:42:09.115Z,6.93
2017-12-28T19:44:35.554Z,6.25
2017-12-28T19:47:01.987Z,7.22
2017-12-28T19:49:28.465Z,7.00
2017-12-28T19:51:54.987Z,7.50
2017-12-28T19:54:21.457Z,7.25
2017-12-28T19:56:47.913Z,4.60
2017-12-28T19:59:14.330Z,7.75
2017-12-28T20:01:41.552Z,4.22
2017-12-28T20:04:08.001Z,10.70
2017-12-28T20:06:34.464Z,8.60
2017-12-28T20:09:00.938Z,5.93
2017-12-28T20:11:27.390Z,5.57
2017-12-28T20:13:53.857Z,9.05
2017-12-28T20:16:21.029Z,12.20
2017-12-28T20:18:47.538Z,7.28
2017-12-28T20:21:14.764Z,6.60
2017-12-28T20:23:41.214Z,5.50
2017-12-28T20:26:07.697Z,5.70
2017-12-28T20:28:34.233Z,7.37
2017-12-28T20:31:00.772Z,4.90
2017-12-28T20:33:27.204Z,8.48
2017-12-28T20:35:53.680Z,8.18
2017-12-28T20:38:20.873Z,4.68
2017-12-28T20:40:48.350Z,7.12
2017-12-28T20:43:15.584Z,6.45
2017-12-28T20:45:42.014Z,14.70
2017-12-28T20:48:08.505Z,7.90
2017-12-28T20:50:34.980Z,8.38
2017-12-28T20:53:01.443Z,8.13
2017-12-28T20:55:27.905Z,6.30
2017-12-28T20:57:54.530Z,4.60
2017-12-28T21:00:21.010Z,5.25
2017-12-28T21:02:47.515Z,5.07
2017-12-28T21:05:13.990Z,5.28
2017-12-28T21:07:40.469Z,6.78
2017-12-28T21:10:06.932Z,8.07
2017-12-28T21:12:34.153Z,7.35
2017-12-28T21:15:00.637Z,8.10
2017-12-28T21:17:27.234Z,9.63
2017-12-28T21:19:53.618Z,9.27
2017-12-28T21:22:20.062Z,4.47
2017-12-28T21:24:47.247Z,4.55
2017-12-28T21:27:13.677Z,4.25
2017-12-28T21:29:40.121Z,3.10
2017-12-28T21:32:06.561Z,5.20
2017-12-28T21:34:33.029Z,7.18
2017-12-28T21:36:59.494Z,5.07
2017-12-28T21:39:25.926Z,4.60
2017-12-28T21:41:52.393Z,3.22
2017-12-28T21:44:18.822Z,4.80
2017-12-28T21:46:45.519Z,5.25
2017-12-28T21:49:12.718Z,4.12
2017-12-28T21:51:39.919Z,6.22
2017-12-28T21:54:07.081Z,3.10
2017-12-28T21:56:33.519Z,6.30
2017-12-28T21:58:59.944Z,4.70
2017-12-28T22:01:26.431Z,7.10
2017-12-28T22:03:52.921Z,6.43
2017-12-28T22:06:19.405Z,3.45
2017-12-28T22:08:45.843Z,7.07
2017-12-28T22:11:12.273Z,4.75
2017-12-28T22:13:38.738Z,3.90
2017-12-28T22:16:05.205Z,7.18
2017-12-28T22:18:31.688Z,5.53
2017-12-28T22:20:58.148Z,7.85
2017-12-28T22:23:24.593Z,6.65
2017-12-28T22:25:51.065Z,6.10
2017-12-28T22:28:18.293Z,4.50
2017-12-28T22:30:44.743Z,4.37
2017-12-28T22:33:11.242Z,3.95
2017-12-28T22:35:37.720Z,8.68
2017-12-28T22:38:04.144Z,3.60
2017-12-28T22:40:31.368Z,5.40
2017-12-28T22:42:57.852Z,5.95
2017-12-28T22:45:24.340Z,6.80
2017-12-28T22:47:51.534Z,6.70
2017-12-28T22:50:17.988Z,5.10
2017-12-28T22:52:44.443Z,8.77
2017-12-28T22:55:10.859Z,5.80
2017-12-28T22:57:37.480Z,6.20
2017-12-28T23:00:04.125Z,5.10
2017-12-28T23:02:31.273Z,4.85
2017-12-28T23:04:58.591Z,6.00
2017-12-28T23:07:25.185Z,4.80
2017-12-28T23:09:51.627Z,6.70
2017-12-28T23:12:18.078Z,5.93
2017-12-28T23:14:44.485Z,3.62
2017-12-28T23:17:10.974Z,5.72
2017-12-28T23:19:37.442Z,8.00
2017-12-28T23:22:04.566Z,3.72
2017-12-28T23:24:30.969Z,6.20
2017-12-28T23:26:57.392Z,4.40
2017-12-28T23:29:24.573Z,6.00
2017-12-28T23:31:51.035Z,5.15
2017-12-28T23:34:18.180Z,3.90
2017-12-28T23:36:44.792Z,5.40
2017-12-28T23:39:11.961Z,3.92
2017-12-28T23:41:38.386Z,4.68
2017-12-28T23:44:04.841Z,4.57
2017-12-28T23:46:31.253Z,3.83
2017-12-28T23:48:57.708Z,3.30
2017-12-28T23:51:24.976Z,6.68
2017-12-28T23:53:51.454Z,4.28
2017-12-28T23:56:17.841Z,5.53
2017-12-28T23:58:45.067Z,3.28
